Time;durP1;ratioP1;P1;durP2;ratioP2;P2;SDS_P1;SDS_P2;PMS_P1;PMS_P2;Temp;Humidity;BMP_temperature;BMP_pressure;BME280_temperature;BME280_humidity;BME280_pressure;Samples;Min_cycle;Max_cycle;Signal;HPM_P1;HPM_P2
2021/06/26 00:02:21;;;;;;;19.05;12.15;;;16.90;99.90;;;;;;5053507;28;20092;-64
2021/06/26 00:04:49;;;;;;;17.60;11.45;;;16.90;99.90;;;;;;5054966;28;20048;-64
2021/06/26 00:07:17;;;;;;;20.65;12.35;;;16.90;99.90;;;;;;5052725;28;20067;-64
2021/06/26 00:09:44;;;;;;;19.75;12.13;;;16.80;99.90;;;;;;5052641;28;20604;-64
2021/06/26 00:12:11;;;;;;;18.48;12.77;;;16.90;99.90;;;;;;5053349;28;20087;-64
2021/06/26 00:14:38;;;;;;;22.63;12.25;;;16.90;99.90;;;;;;5051746;28;20052;-64
2021/06/26 00:17:05;;;;;;;19.23;12.45;;;16.90;99.90;;;;;;5051833;28;20102;-64
2021/06/26 00:19:33;;;;;;;20.92;12.05;;;16.80;99.90;;;;;;5053899;28;20500;-64
2021/06/26 00:21:59;;;;;;;24.42;12.25;;;16.80;99.90;;;;;;5052309;28;20084;-64
2021/06/26 00:24:28;;;;;;;22.00;12.57;;;16.70;99.90;;;;;;5053025;28;20093;-64
2021/06/26 00:26:55;;;;;;;23.88;12.70;;;16.60;99.90;;;;;;5053135;28;20158;-64
2021/06/26 00:29:22;;;;;;;23.90;13.02;;;16.60;99.90;;;;;;5050935;28;20064;-64
2021/06/26 00:31:49;;;;;;;23.08;13.95;;;16.60;99.90;;;;;;5050006;28;20110;-64
2021/06/26 00:34:16;;;;;;;22.13;14.60;;;16.60;99.90;;;;;;5052523;28;20109;-64
2021/06/26 00:36:43;;;;;;;26.45;15.65;;;16.60;99.90;;;;;;5054719;28;20052;-65
2021/06/26 00:39:10;;;;;;;26.25;15.48;;;16.60;99.90;;;;;;5051245;28;20056;-64
2021/06/26 00:41:38;;;;;;;25.88;16.25;;;16.50;99.90;;;;;;5053854;28;20072;-64
2021/06/26 00:44:07;;;;;;;24.38;15.48;;;16.50;99.90;;;;;;5052363;28;20075;-64
2021/06/26 00:46:34;;;;;;;27.90;16.38;;;16.40;99.90;;;;;;5054146;28;20050;-64
2021/06/26 00:49:01;;;;;;;27.58;16.85;;;16.40;99.90;;;;;;5051983;28;20843;-64
2021/06/26 00:51:29;;;;;;;27.85;16.00;;;16.50;99.90;;;;;;5051606;28;20089;-64
2021/06/26 00:53:56;;;;;;;27.67;15.43;;;16.50;99.90;;;;;;5051094;28;21150;-64
2021/06/26 00:56:24;;;;;;;25.55;15.32;;;16.40;99.90;;;;;;5052983;28;20048;-64
2021/06/26 00:58:55;;;;;;;25.48;16.88;;;16.20;99.90;;;;;;5051586;28;20518;-64
2021/06/26 01:01:22;;;;;;;26.98;15.55;;;16.10;99.90;;;;;;5050610;28;20071;-64
2021/06/26 01:03:50;;;;;;;27.10;16.20;;;16.10;99.90;;;;;;5053131;28;20089;-64
2021/06/26 01:06:17;;;;;;;25.73;16.33;;;16.00;99.90;;;;;;5051150;28;20093;-64
2021/06/26 01:08:45;;;;;;;23.10;15.98;;;16.00;99.90;;;;;;5051757;28;20094;-65
2021/06/26 01:11:12;;;;;;;24.95;16.50;;;16.00;99.90;;;;;;5051825;28;20076;-64
2021/06/26 01:13:39;;;;;;;36.50;17.80;;;16.00;99.90;;;;;;5050166;28;20044;-64
2021/06/26 01:16:07;;;;;;;26.67;16.95;;;16.10;99.90;;;;;;5052634;28;20079;-64
2021/06/26 01:18:34;;;;;;;29.88;17.73;;;16.10;99.90;;;;;;5048707;28;20044;-64
2021/06/26 01:21:01;;;;;;;30.73;17.30;;;16.00;99.90;;;;;;5050222;28;20512;-65
2021/06/26 01:23:30;;;;;;;24.23;15.15;;;16.30;99.90;;;;;;5051031;28;20097;-64
2021/06/26 01:25:57;;;;;;;27.70;16.30;;;16.00;99.90;;;;;;5050771;28;20079;-64
2021/06/26 01:28:23;;;;;;;30.27;17.60;;;16.00;99.90;;;;;;5048966;28;20118;-64
2021/06/26 01:30:50;;;;;;;32.15;17.90;;;15.90;99.90;;;;;;5051054;28;20125;-65
2021/06/26 01:33:17;;;;;;;27.00;16.58;;;15.90;99.90;;;;;;5049869;28;20474;-64
2021/06/26 01:35:44;;;;;;;30.60;17.33;;;15.90;99.90;;;;;;5049326;28;20101;-65
2021/06/26 01:38:11;;;;;;;37.10;16.60;;;15.90;99.90;;;;;;5045801;28;20409;-65
2021/06/26 01:40:40;;;;;;;26.25;16.45;;;16.00;99.90;;;;;;5048670;28;20129;-64
2021/06/26 01:43:12;;;;;;;28.27;16.45;;;16.20;99.90;;;;;;5050169;28;20113;-64
2021/06/26 01:45:39;;;;;;;28.45;15.80;;;16.10;99.90;;;;;;5049022;28;20105;-64
2021/06/26 01:48:07;;;;;;;24.83;15.90;;;16.10;99.90;;;;;;5047705;28;20218;-64
2021/06/26 01:50:34;;;;;;;26.80;15.80;;;16.30;99.90;;;;;;5050450;28;20036;-64
2021/06/26 01:53:01;;;;;;;29.88;16.83;;;16.30;99.90;;;;;;5050954;28;20075;-64
2021/06/26 01:55:28;;;;;;;25.58;15.70;;;16.30;99.90;;;;;;5051071;28;20048;-64
2021/06/26 01:57:57;;;;;;;28.02;15.73;;;16.30;99.90;;;;;;5050065;28;20135;-64
2021/06/26 02:00:26;;;;;;;33.65;18.75;;;16.30;99.90;;;;;;5050421;28;20049;-64
2021/06/26 02:02:53;;;;;;;31.10;18.45;;;16.30;99.90;;;;;;5049737;28;20072;-64
2021/06/26 02:05:23;;;;;;;31.75;18.67;;;16.40;99.90;;;;;;5051089;28;20053;-63
2021/06/26 02:07:50;;;;;;;42.30;21.17;;;16.40;99.90;;;;;;5049500;28;20059;-63
2021/06/26 02:10:18;;;;;;;31.35;18.67;;;16.50;99.90;;;;;;5049160;28;20048;-64
2021/06/26 02:12:45;;;;;;;27.95;16.83;;;16.50;99.90;;;;;;5052102;28;20055;-63
2021/06/26 02:15:17;;;;;;;46.05;20.45;;;16.60;99.90;;;;;;5050947;28;20112;-64
2021/06/26 02:17:44;;;;;;;39.88;22.13;;;16.50;99.90;;;;;;5053268;28;20470;-64
2021/06/26 02:20:11;;;;;;;40.92;21.95;;;16.50;99.90;;;;;;5053558;28;20557;-64
2021/06/26 02:22:41;;;;;;;41.92;20.38;;;16.50;99.90;;;;;;5054918;28;20048;-64
2021/06/26 02:25:10;;;;;;;40.42;21.92;;;16.60;99.90;;;;;;5052727;28;20056;-64
2021/06/26 02:27:37;;;;;;;34.95;19.08;;;16.60;99.90;;;;;;5053142;28;20613;-64
2021/06/26 02:30:06;;;;;;;35.05;19.25;;;16.60;99.90;;;;;;5055407;28;20040;-64
2021/06/26 02:32:35;;;;;;;35.38;19.75;;;16.50;99.90;;;;;;5054906;28;20072;-64
2021/06/26 02:35:02;;;;;;;38.55;20.50;;;16.50;99.90;;;;;;5054111;28;20516;-64
2021/06/26 02:37:29;;;;;;;37.60;20.20;;;16.60;99.90;;;;;;5053128;28;20783;-64
2021/06/26 02:39:56;;;;;;;35.85;19.67;;;16.60;99.90;;;;;;5054209;28;20048;-64
2021/06/26 02:42:23;;;;;;;36.17;20.02;;;16.60;99.90;;;;;;5054080;28;20112;-65
2021/06/26 02:44:50;;;;;;;35.47;20.95;;;16.60;99.90;;;;;;5053667;28;20469;-64
2021/06/26 02:47:18;;;;;;;49.13;23.52;;;16.60;99.90;;;;;;5053965;28;20052;-64
2021/06/26 02:49:46;;;;;;;48.72;23.63;;;16.50;99.90;;;;;;5051437;28;20083;-64
2021/06/26 02:52:13;;;;;;;47.95;24.13;;;16.50;99.90;;;;;;5054062;28;20662;-64
2021/06/26 02:54:40;;;;;;;80.53;26.70;;;16.50;99.90;;;;;;5053098;28;20059;-64
2021/06/26 02:57:08;;;;;;;83.60;27.67;;;16.50;99.90;;;;;;5056043;28;20056;-65
2021/06/26 02:59:35;;;;;;;48.13;23.73;;;16.50;99.90;;;;;;5051692;28;20225;-64
2021/06/26 03:02:02;;;;;;;44.92;23.38;;;16.50;99.90;;;;;;5054605;28;20487;-64
2021/06/26 03:04:29;;;;;;;40.17;23.15;;;16.50;99.90;;;;;;5051225;28;20052;-64
2021/06/26 03:06:57;;;;;;;41.47;20.50;;;16.50;99.90;;;;;;5053379;28;20048;-65
2021/06/26 03:09:24;;;;;;;140.35;29.85;;;16.60;99.90;;;;;;5051802;28;20105;-64
2021/06/26 03:11:51;;;;;;;85.72;27.80;;;16.50;99.90;;;;;;5052414;28;20135;-64
2021/06/26 03:14:18;;;;;;;107.07;28.02;;;16.50;99.90;;;;;;5051186;28;20080;-64
2021/06/26 03:16:45;;;;;;;66.65;27.27;;;16.40;99.90;;;;;;5053738;28;21379;-64
2021/06/26 03:19:14;;;;;;;76.85;27.33;;;16.40;99.90;;;;;;5049608;28;20052;-64
2021/06/26 03:21:41;;;;;;;108.60;27.50;;;16.40;99.90;;;;;;5053510;28;20059;-64
2021/06/26 03:24:09;;;;;;;102.35;28.13;;;16.40;99.90;;;;;;5050477;28;20056;-64
2021/06/26 03:26:36;;;;;;;63.47;23.38;;;16.30;99.90;;;;;;5050619;28;20056;-64
2021/06/26 03:29:04;;;;;;;69.32;27.40;;;16.40;99.90;;;;;;5049858;28;20521;-64
2021/06/26 03:31:31;;;;;;;114.55;27.30;;;16.40;99.90;;;;;;5050122;28;20121;-64
2021/06/26 03:33:58;;;;;;;166.88;31.27;;;16.40;99.90;;;;;;5054064;28;20040;-64
2021/06/26 03:36:25;;;;;;;102.88;29.42;;;16.50;99.90;;;;;;5052599;28;20144;-64
2021/06/26 03:38:52;;;;;;;84.47;27.40;;;16.40;99.90;;;;;;5051225;28;20055;-64
2021/06/26 03:41:24;;;;;;;88.40;27.13;;;16.40;99.90;;;;;;5052830;28;20585;-64
2021/06/26 03:43:51;;;;;;;50.65;25.70;;;16.50;99.90;;;;;;5052858;28;20056;-64
2021/06/26 03:46:18;;;;;;;91.32;30.35;;;16.50;99.90;;;;;;5050773;28;20052;-64
2021/06/26 03:48:45;;;;;;;73.15;27.35;;;16.50;99.90;;;;;;5052909;28;20048;-64
2021/06/26 03:51:12;;;;;;;54.47;27.98;;;16.40;99.90;;;;;;5049897;28;20080;-64
2021/06/26 03:53:39;;;;;;;80.88;29.15;;;16.50;99.90;;;;;;5050789;28;20128;-64
2021/06/26 03:56:06;;;;;;;58.05;28.50;;;16.40;99.90;;;;;;5052793;28;20554;-64
2021/06/26 03:58:35;;;;;;;68.03;27.77;;;16.40;99.90;;;;;;5051481;28;21038;-65
2021/06/26 04:01:02;;;;;;;54.85;27.63;;;16.40;99.90;;;;;;5051929;28;21606;-66
2021/06/26 04:03:29;;;;;;;49.28;26.60;;;16.50;99.90;;;;;;5051154;28;20052;-64
2021/06/26 04:05:56;;;;;;;53.30;26.60;;;16.70;99.90;;;;;;5050131;28;20113;-64
2021/06/26 04:08:23;;;;;;;59.83;26.95;;;16.80;99.90;;;;;;5049380;28;20139;-64
2021/06/26 04:10:50;;;;;;;47.55;24.33;;;16.70;99.90;;;;;;5054179;28;20044;-64
2021/06/26 04:13:17;;;;;;;51.42;24.95;;;16.70;99.90;;;;;;5051572;28;20129;-64
2021/06/26 04:15:45;;;;;;;51.70;26.63;;;16.80;99.90;;;;;;5050085;28;20048;-64
2021/06/26 04:18:12;;;;;;;52.95;26.42;;;16.80;99.90;;;;;;5049103;28;20489;-64
2021/06/26 04:20:42;;;;;;;48.25;25.15;;;16.80;99.90;;;;;;5051822;28;20044;-64
2021/06/26 04:23:09;;;;;;;42.83;23.25;;;17.00;99.90;;;;;;5052250;28;20786;-64
2021/06/26 04:25:36;;;;;;;43.13;23.27;;;17.10;99.90;;;;;;5050965;28;20471;-64
2021/06/26 04:28:08;;;;;;;39.83;22.83;;;17.00;99.90;;;;;;5047219;28;20428;-64
2021/06/26 04:30:35;;;;;;;48.97;23.08;;;17.20;99.90;;;;;;5051783;28;20056;-64
2021/06/26 04:33:05;;;;;;;52.72;24.70;;;17.00;99.90;;;;;;5050098;28;20109;-64
2021/06/26 04:35:32;;;;;;;51.75;24.90;;;17.00;99.90;;;;;;5051827;28;20083;-64
2021/06/26 04:37:59;;;;;;;47.40;25.02;;;17.00;99.90;;;;;;5048594;28;21100;-64
2021/06/26 04:40:26;;;;;;;79.10;26.17;;;17.00;99.90;;;;;;5053534;28;20043;-64
2021/06/26 04:42:53;;;;;;;44.55;24.55;;;16.90;99.90;;;;;;5051239;28;20079;-64
2021/06/26 04:45:21;;;;;;;63.10;26.90;;;16.90;99.90;;;;;;5051952;28;20110;-64
2021/06/26 04:47:49;;;;;;;70.57;29.10;;;16.90;99.90;;;;;;5052335;28;20048;-64
2021/06/26 04:50:17;;;;;;;53.28;27.20;;;16.80;99.90;;;;;;5050759;28;20144;-64
2021/06/26 04:52:46;;;;;;;52.58;26.45;;;16.80;99.90;;;;;;5051312;28;20040;-64
2021/06/26 04:55:13;;;;;;;44.55;24.70;;;16.90;99.90;;;;;;5049800;28;20052;-64
2021/06/26 04:57:40;;;;;;;54.08;26.80;;;17.00;99.90;;;;;;5049868;28;20080;-64
2021/06/26 05:00:09;;;;;;;55.10;27.73;;;17.00;99.90;;;;;;5050729;28;20051;-64
2021/06/26 05:02:36;;;;;;;47.83;25.60;;;17.00;99.90;;;;;;5049551;28;20048;-65
2021/06/26 05:05:04;;;;;;;61.92;26.77;;;17.00;99.90;;;;;;5051260;28;20044;-64
2021/06/26 05:07:32;;;;;;;55.83;26.98;;;17.00;99.90;;;;;;5049068;28;20067;-64
2021/06/26 05:09:59;;;;;;;58.35;28.02;;;17.20;99.90;;;;;;5048616;28;20098;-64
2021/06/26 05:12:26;;;;;;;48.28;25.88;;;17.00;99.90;;;;;;5052503;28;20516;-64
2021/06/26 05:14:53;;;;;;;53.40;25.80;;;17.10;99.90;;;;;;5052470;28;20481;-64
2021/06/26 05:17:20;;;;;;;54.83;26.60;;;17.00;99.90;;;;;;5050766;28;21496;-65
2021/06/26 05:19:47;;;;;;;52.03;24.27;;;17.20;99.90;;;;;;5049913;28;20492;-64
2021/06/26 05:22:14;;;;;;;48.60;26.40;;;17.30;99.90;;;;;;5050102;28;20656;-64
2021/06/26 05:24:43;;;;;;;49.08;24.45;;;17.30;99.90;;;;;;5052217;28;20048;-65
2021/06/26 05:27:10;;;;;;;58.78;27.42;;;17.40;99.90;;;;;;5049623;28;20056;-65
2021/06/26 05:29:42;;;;;;;43.28;24.45;;;17.40;99.90;;;;;;5050282;28;20051;-65
2021/06/26 05:32:10;;;;;;;36.75;22.65;;;17.40;99.90;;;;;;5050411;28;20139;-64
2021/06/26 05:34:37;;;;;;;37.13;23.63;;;17.60;99.90;;;;;;5050302;28;20512;-64
2021/06/26 05:37:05;;;;;;;35.67;22.88;;;17.60;99.90;;;;;;5052425;28;20139;-65
2021/06/26 05:39:32;;;;;;;36.05;22.90;;;17.70;99.90;;;;;;5050630;28;20132;-64
2021/06/26 05:42:00;;;;;;;36.67;23.10;;;17.70;99.90;;;;;;5052242;28;20052;-64
2021/06/26 05:44:27;;;;;;;47.50;25.23;;;17.70;99.90;;;;;;5051050;28;20056;-65
2021/06/26 05:46:54;;;;;;;42.92;25.50;;;17.60;99.90;;;;;;5050605;28;20093;-64
2021/06/26 05:49:21;;;;;;;39.17;24.35;;;17.50;99.90;;;;;;5047433;28;20052;-64
2021/06/26 05:51:48;;;;;;;37.40;23.20;;;17.60;99.90;;;;;;5051396;28;20074;-64
2021/06/26 05:54:16;;;;;;;36.80;22.65;;;17.80;99.90;;;;;;5051051;28;20056;-64
2021/06/26 05:56:43;;;;;;;41.13;23.50;;;17.50;99.90;;;;;;5051692;28;20048;-65
2021/06/26 05:59:11;;;;;;;44.78;22.85;;;17.50;99.90;;;;;;5049121;28;20504;-65
2021/06/26 06:01:38;;;;;;;41.13;22.02;;;17.60;99.90;;;;;;5052165;28;20047;-65
2021/06/26 06:04:07;;;;;;;36.97;23.50;;;17.60;99.90;;;;;;5049863;28;20075;-65
2021/06/26 06:06:35;;;;;;;36.08;22.42;;;17.70;99.90;;;;;;5050247;28;20044;-64
2021/06/26 06:09:02;;;;;;;34.05;22.02;;;17.80;99.90;;;;;;5050041;28;20044;-65
2021/06/26 06:11:29;;;;;;;36.22;22.38;;;18.10;99.90;;;;;;5050366;28;20550;-65
2021/06/26 06:13:56;;;;;;;42.38;23.55;;;18.00;99.90;;;;;;5051771;28;20093;-64
2021/06/26 06:16:25;;;;;;;35.08;22.35;;;17.70;99.90;;;;;;5052558;28;20084;-65
2021/06/26 06:18:53;;;;;;;37.53;23.55;;;17.90;99.90;;;;;;5052475;28;20506;-64
2021/06/26 06:21:20;;;;;;;33.95;22.33;;;18.00;99.90;;;;;;5052973;28;20102;-65
2021/06/26 06:23:47;;;;;;;41.58;23.48;;;18.00;99.90;;;;;;5049860;28;21326;-64
2021/06/26 06:26:14;;;;;;;36.42;22.33;;;18.00;99.90;;;;;;5049996;28;20496;-64
2021/06/26 06:28:41;;;;;;;37.47;23.88;;;18.00;99.90;;;;;;5048653;28;20127;-65
2021/06/26 06:31:08;;;;;;;36.03;22.33;;;18.20;99.90;;;;;;5051696;28;20101;-64
2021/06/26 06:33:37;;;;;;;38.45;23.48;;;18.20;99.90;;;;;;5049083;28;20055;-64
2021/06/26 06:36:07;;;;;;;35.50;21.48;;;18.30;99.90;;;;;;5048139;28;20056;-64
2021/06/26 06:38:34;;;;;;;30.75;21.02;;;18.20;99.90;;;;;;5049224;28;20056;-64
2021/06/26 06:41:01;;;;;;;31.50;21.05;;;18.40;99.90;;;;;;5050799;28;20052;-64
2021/06/26 06:43:28;;;;;;;32.70;20.70;;;18.40;99.90;;;;;;5050923;28;20052;-64
2021/06/26 06:45:55;;;;;;;30.15;19.52;;;18.50;99.90;;;;;;5049712;28;20919;-64
2021/06/26 06:48:22;;;;;;;33.60;21.80;;;18.20;99.90;;;;;;5050095;28;20047;-65
2021/06/26 06:50:51;;;;;;;31.33;20.95;;;18.60;99.90;;;;;;5050998;28;20640;-65
2021/06/26 06:53:18;;;;;;;38.03;21.90;;;18.70;99.90;;;;;;5052659;28;20044;-65
2021/06/26 06:55:50;;;;;;;32.53;21.45;;;18.90;99.90;;;;;;5050323;28;20451;-65
2021/06/26 06:58:18;;;;;;;32.70;20.83;;;18.80;99.90;;;;;;5049821;28;20059;-64
2021/06/26 07:00:45;;;;;;;28.17;20.13;;;18.80;99.90;;;;;;5052368;28;20123;-64
2021/06/26 07:03:12;;;;;;;29.20;19.92;;;18.70;99.90;;;;;;5055208;28;20087;-65
2021/06/26 07:05:39;;;;;;;27.42;18.08;;;18.70;99.90;;;;;;5056426;28;20087;-65
2021/06/26 07:08:07;;;;;;;26.95;18.90;;;18.90;99.90;;;;;;5057667;28;20092;-64
2021/06/26 07:10:35;;;;;;;29.20;19.17;;;19.10;99.90;;;;;;5053695;28;20049;-64
2021/06/26 07:13:02;;;;;;;28.35;18.25;;;19.20;99.90;;;;;;5056001;28;20055;-64
2021/06/26 07:15:29;;;;;;;26.95;18.73;;;19.60;99.90;;;;;;5054886;28;20477;-64
2021/06/26 07:17:56;;;;;;;24.08;18.20;;;19.80;99.90;;;;;;5052528;28;20528;-64
2021/06/26 07:20:23;;;;;;;28.88;19.88;;;19.90;99.90;;;;;;5054753;28;20051;-64
2021/06/26 07:22:50;;;;;;;28.85;19.52;;;19.70;99.90;;;;;;5055489;28;20052;-64
2021/06/26 07:25:19;;;;;;;24.40;17.35;;;19.90;99.90;;;;;;5055047;28;20052;-64
2021/06/26 07:27:46;;;;;;;25.98;17.60;;;20.10;99.90;;;;;;5054899;28;20059;-64
2021/06/26 07:30:14;;;;;;;27.98;19.45;;;20.20;99.90;;;;;;5054460;28;20473;-64
2021/06/26 07:32:43;;;;;;;27.40;18.98;;;20.20;99.90;;;;;;5053965;28;20431;-64
2021/06/26 07:35:11;;;;;;;28.33;18.27;;;20.20;99.90;;;;;;5057855;28;20102;-64
2021/06/26 07:37:38;;;;;;;27.63;19.42;;;20.50;99.90;;;;;;5052393;28;20112;-64
2021/06/26 07:40:06;;;;;;;26.27;18.50;;;20.30;99.90;;;;;;5058317;28;20075;-64
2021/06/26 07:42:34;;;;;;;25.10;19.25;;;20.60;99.90;;;;;;5053875;28;20375;-64
2021/06/26 07:45:02;;;;;;;27.17;18.92;;;20.70;99.90;;;;;;5057038;28;20056;-64
2021/06/26 07:47:29;;;;;;;30.00;19.38;;;20.90;99.90;;;;;;5055299;28;20572;-64
2021/06/26 07:49:56;;;;;;;25.77;19.40;;;20.70;99.90;;;;;;5052331;28;20052;-64
2021/06/26 07:52:23;;;;;;;28.02;19.85;;;20.70;99.90;;;;;;5051750;28;20574;-64
2021/06/26 07:54:50;;;;;;;30.60;20.80;;;20.50;99.90;;;;;;5054795;28;20486;-64
2021/06/26 07:57:17;;;;;;;26.17;18.50;;;20.40;99.90;;;;;;5053905;28;20393;-65
2021/06/26 07:59:45;;;;;;;27.48;19.65;;;20.90;99.90;;;;;;5053176;28;20447;-64
2021/06/26 08:02:12;;;;;;;29.20;20.85;;;21.10;99.90;;;;;;5054867;28;20860;-64
2021/06/26 08:04:39;;;;;;;28.75;18.90;;;21.10;99.90;;;;;;5052693;28;20107;-64
2021/06/26 08:07:06;;;;;;;26.45;18.95;;;21.20;99.90;;;;;;5054327;28;20470;-64
2021/06/26 08:09:33;;;;;;;28.45;20.77;;;21.00;99.90;;;;;;5053185;28;20137;-64
2021/06/26 08:12:00;;;;;;;33.40;21.40;;;21.10;99.90;;;;;;5052627;28;20098;-64
2021/06/26 08:14:27;;;;;;;27.70;19.73;;;20.90;99.90;;;;;;5052634;28;20057;-65
2021/06/26 08:16:55;;;;;;;29.90;21.35;;;21.20;99.90;;;;;;5054217;28;20049;-64
2021/06/26 08:19:22;;;;;;;34.35;22.20;;;21.30;99.90;;;;;;5054224;28;20051;-65
2021/06/26 08:21:49;;;;;;;25.52;19.50;;;21.10;99.90;;;;;;5051447;28;20047;-63
2021/06/26 08:24:16;;;;;;;26.63;19.48;;;21.30;99.90;;;;;;5045064;28;20564;-64
2021/06/26 08:26:43;;;;;;;27.83;20.83;;;21.50;99.90;;;;;;5048679;28;20185;-63
2021/06/26 08:29:10;;;;;;;28.90;20.73;;;21.80;99.90;;;;;;5050495;28;20064;-64
2021/06/26 08:31:37;;;;;;;28.98;21.75;;;21.90;99.90;;;;;;5049239;28;20052;-64
2021/06/26 08:34:06;;;;;;;26.25;18.73;;;22.10;99.90;;;;;;5051421;28;20139;-62
2021/06/26 08:36:33;;;;;;;26.00;19.05;;;22.30;99.90;;;;;;5041507;28;20044;-64
2021/06/26 08:39:01;;;;;;;26.90;20.85;;;22.50;99.90;;;;;;5044523;28;20561;-63
2021/06/26 08:41:30;;;;;;;26.40;19.38;;;22.50;99.90;;;;;;5046513;28;20056;-64
2021/06/26 08:44:00;;;;;;;27.55;20.35;;;22.50;99.90;;;;;;5046657;28;20044;-64
2021/06/26 08:46:31;;;;;;;27.23;19.05;;;22.90;99.90;;;;;;5045247;28;20389;-63
2021/06/26 08:48:58;;;;;;;24.27;19.58;;;23.30;99.90;;;;;;5048105;28;20101;-64
2021/06/26 08:51:26;;;;;;;25.52;18.00;;;23.80;99.90;;;;;;5053127;28;20082;-63
2021/06/26 08:53:53;;;;;;;24.23;18.08;;;24.20;99.90;;;;;;5054518;28;20152;-64
2021/06/26 08:56:20;;;;;;;22.27;17.25;;;24.60;99.90;;;;;;5052787;28;20135;-63
2021/06/26 08:58:47;;;;;;;23.75;17.23;;;25.00;99.90;;;;;;5053638;28;20052;-63
2021/06/26 09:01:14;;;;;;;21.35;16.13;;;25.70;99.90;;;;;;5049307;28;20550;-64
2021/06/26 09:03:41;;;;;;;25.00;16.25;;;26.10;99.90;;;;;;5050895;28;20048;-64
2021/06/26 09:06:08;;;;;;;21.92;17.83;;;26.60;99.90;;;;;;5054231;28;20465;-64
2021/06/26 09:08:37;;;;;;;22.52;18.05;;;27.00;99.90;;;;;;5051734;28;20044;-64
2021/06/26 09:11:04;;;;;;;20.73;17.55;;;27.00;99.90;;;;;;5052493;28;20048;-64
2021/06/26 09:13:34;;;;;;;22.33;17.38;;;27.00;99.90;;;;;;5052188;28;20405;-64
2021/06/26 09:16:06;;;;;;;21.13;16.77;;;27.50;99.90;;;;;;5055340;28;20960;-66
2021/06/26 09:18:41;;;;;;;20.20;16.30;;;28.00;99.90;;;;;;5053459;28;20519;-64
2021/06/26 09:21:21;;;;;;;19.23;15.20;;;28.70;99.90;;;;;;5053064;28;20539;-63
2021/06/26 09:24:04;;;;;;;19.17;14.60;;;29.20;99.90;;;;;;5056456;28;20182;-64
2021/06/26 09:26:31;;;;;;;18.55;16.02;;;29.70;99.90;;;;;;5058538;28;20481;-64
2021/06/26 09:29:09;;;;;;;18.67;15.82;;;29.70;99.90;;;;;;5054360;28;20047;-64
2021/06/26 09:31:36;;;;;;;18.05;15.07;;;30.10;99.90;;;;;;5056122;28;20130;-64
2021/06/26 09:34:04;;;;;;;15.90;14.10;;;30.10;99.90;;;;;;5052599;28;20135;-64
2021/06/26 09:36:33;;;;;;;16.77;13.60;;;30.30;99.90;;;;;;5053781;28;20063;-64
2021/06/26 09:39:06;;;;;;;15.02;13.43;;;30.50;99.90;;;;;;5054907;28;20059;-64
2021/06/26 09:41:36;;;;;;;15.30;12.48;;;31.50;99.90;;;;;;5055255;28;20048;-64
2021/06/26 09:44:10;;;;;;;15.05;12.18;;;32.30;99.90;;;;;;5053790;28;20586;-64
2021/06/26 09:46:47;;;;;;;15.25;11.93;;;31.60;99.90;;;;;;5052742;28;20082;-65
2021/06/26 09:49:15;;;;;;;14.00;11.85;;;32.40;99.90;;;;;;5049722;28;20398;-64
2021/06/26 09:51:42;;;;;;;14.52;12.25;;;32.20;99.90;;;;;;5052308;28;20083;-64
2021/06/26 09:54:10;;;;;;;13.90;11.50;;;32.80;99.90;;;;;;5051417;28;20462;-64
2021/06/26 09:56:39;;;;;;;14.68;12.82;;;33.20;99.90;;;;;;5054507;28;20044;-64
2021/06/26 09:59:07;;;;;;;13.30;10.80;;;32.50;99.90;;;;;;5051567;28;20169;-64
2021/06/26 10:01:38;;;;;;;16.33;11.98;;;33.20;99.90;;;;;;5049018;28;20044;-64
2021/06/26 10:04:06;;;;;;;13.00;10.88;;;32.30;99.90;;;;;;5054851;28;20508;-64
2021/06/26 10:06:34;;;;;;;10.68;9.43;;;32.90;99.90;;;;;;5053863;28;20445;-64
2021/06/26 10:09:02;;;;;;;12.07;10.05;;;33.40;99.90;;;;;;5051371;28;20044;-64
2021/06/26 10:11:33;;;;;;;14.75;12.55;;;33.60;99.90;;;;;;5051100;28;20055;-64
2021/06/26 10:14:02;;;;;;;12.48;9.95;;;32.10;99.90;;;;;;5048675;28;20114;-64
2021/06/26 10:16:30;;;;;;;15.02;10.23;;;32.00;99.90;;;;;;5052880;28;20163;-64
2021/06/26 10:19:00;;;;;;;13.07;10.00;;;32.40;99.90;;;;;;5054377;28;20052;-64
2021/06/26 10:21:28;;;;;;;13.57;11.20;;;30.90;99.90;;;;;;5054492;28;20053;-64
2021/06/26 10:23:56;;;;;;;11.55;9.70;;;30.60;99.90;;;;;;5052748;28;20042;-64
2021/06/26 10:26:23;;;;;;;12.48;10.05;;;31.50;99.90;;;;;;5050266;28;20052;-64
2021/06/26 10:28:59;;;;;;;13.25;9.32;;;31.70;99.90;;;;;;5052032;28;20056;-64
2021/06/26 10:31:31;;;;;;;14.68;11.95;;;32.10;99.90;;;;;;5047516;28;20063;-64
2021/06/26 10:34:09;;;;;;;12.63;11.15;;;31.50;99.90;;;;;;5054539;28;20118;-64
2021/06/26 10:36:37;;;;;;;12.73;10.43;;;31.40;99.90;;;;;;5052430;28;20112;-64
2021/06/26 10:39:17;;;;;;;17.70;11.77;;;31.60;99.90;;;;;;5053055;28;21082;-64
2021/06/26 10:41:44;;;;;;;15.43;12.20;;;31.10;99.90;;;;;;5055175;28;20049;-64
2021/06/26 10:44:12;;;;;;;14.57;11.32;;;30.20;99.90;;;;;;5056722;28;20492;-64
2021/06/26 10:46:47;;;;;;;12.50;10.35;;;29.50;99.90;;;;;;5053811;28;20053;-64
2021/06/26 10:49:14;;;;;;;15.18;11.25;;;29.90;99.90;;;;;;5053690;28;20060;-64
2021/06/26 10:51:43;;;;;;;14.85;10.98;;;30.10;99.90;;;;;;5054801;28;20129;-64
2021/06/26 10:54:15;;;;;;;13.23;11.15;;;30.70;99.90;;;;;;5054881;28;20051;-64
2021/06/26 10:56:43;;;;;;;13.02;10.70;;;30.50;99.90;;;;;;5056089;28;20044;-64
2021/06/26 10:59:13;;;;;;;13.43;10.02;;;31.30;99.90;;;;;;5053759;28;20051;-64
2021/06/26 11:01:40;;;;;;;13.55;10.50;;;31.40;99.90;;;;;;5056996;28;20471;-64
2021/06/26 11:04:10;;;;;;;12.35;10.25;;;31.50;99.90;;;;;;5059015;28;20512;-63
2021/06/26 11:06:38;;;;;;;13.13;9.40;;;32.00;99.90;;;;;;5058824;28;20495;-64
2021/06/26 11:09:07;;;;;;;14.63;9.98;;;31.70;99.90;;;;;;5058748;28;20052;-64
2021/06/26 11:11:36;;;;;;;13.07;9.00;;;31.00;99.90;;;;;;5062133;28;20129;-64
2021/06/26 11:14:12;;;;;;;11.25;9.07;;;32.50;99.90;;;;;;5062270;28;20044;-64
2021/06/26 11:16:40;;;;;;;10.35;8.32;;;33.50;99.90;;;;;;5059391;28;20576;-64
2021/06/26 11:19:07;;;;;;;11.48;9.32;;;33.30;97.80;;;;;;5057893;28;20056;-65
2021/06/26 11:21:46;;;;;;;15.30;8.65;;;31.30;97.60;;;;;;5056089;28;20507;-68
2021/06/26 11:24:14;;;;;;;11.02;8.80;;;30.40;99.80;;;;;;5045052;28;20129;-68
2021/06/26 11:26:53;;;;;;;12.57;8.55;;;30.20;99.50;;;;;;5052438;28;21061;-69
2021/06/26 11:29:30;;;;;;;9.77;7.82;;;30.90;99.60;;;;;;5050619;28;20121;-68
2021/06/26 11:31:59;;;;;;;9.15;6.93;;;31.60;99.90;;;;;;5053283;28;20109;-68
2021/06/26 11:34:26;;;;;;;9.50;7.13;;;31.90;99.90;;;;;;5051381;28;20127;-69
2021/06/26 11:37:02;;;;;;;10.10;7.40;;;32.80;98.50;;;;;;5054842;28;20063;-68
2021/06/26 11:39:31;;;;;;;12.20;8.52;;;33.50;97.90;;;;;;5049141;28;20147;-67
2021/06/26 11:41:58;;;;;;;9.63;7.75;;;32.80;96.40;;;;;;5052164;28;20108;-67
2021/06/26 11:44:37;;;;;;;8.25;6.43;;;33.50;95.20;;;;;;5051775;28;20476;-67
2021/06/26 11:47:06;;;;;;;9.00;7.10;;;33.40;97.00;;;;;;5053970;28;20044;-67
2021/06/26 11:49:34;;;;;;;9.65;7.00;;;33.30;94.80;;;;;;5050259;28;20070;-67
2021/06/26 11:52:01;;;;;;;12.65;6.20;;;32.50;94.70;;;;;;5052578;28;20143;-67
2021/06/26 11:54:29;;;;;;;7.45;6.03;;;32.00;95.70;;;;;;5054833;28;20041;-67
2021/06/26 11:56:56;;;;;;;9.10;7.53;;;32.30;96.60;;;;;;5057621;28;20496;-67
2021/06/26 11:59:23;;;;;;;8.93;7.07;;;31.90;96.00;;;;;;5057027;28;20127;-66
2021/06/26 12:01:51;;;;;;;7.25;5.82;;;32.30;95.10;;;;;;5054299;28;20048;-67
2021/06/26 12:04:28;;;;;;;10.40;7.95;;;33.30;95.50;;;;;;5051449;28;20075;-67
2021/06/26 12:06:56;;;;;;;10.10;7.82;;;31.90;94.90;;;;;;5051076;28;20517;-67
2021/06/26 12:09:25;;;;;;;9.38;7.60;;;31.20;95.10;;;;;;5049541;28;20051;-67
2021/06/26 12:11:54;;;;;;;9.80;8.07;;;31.50;95.70;;;;;;5048573;28;20049;-67
2021/06/26 12:14:29;;;;;;;10.13;7.00;;;31.20;94.00;;;;;;5048457;28;20048;-67
2021/06/26 12:17:05;;;;;;;9.48;7.28;;;32.20;94.00;;;;;;5054535;28;20052;-68
2021/06/26 12:19:33;;;;;;;;;;;32.40;92.90;;;;;;5051947;28;20407;-67
2021/06/26 12:22:01;;;;;;;10.30;7.20;;;32.00;94.00;;;;;;5052292;28;20273;-68
2021/06/26 12:24:31;;;;;;;10.20;7.13;;;32.60;93.40;;;;;;5048162;28;20052;-67
2021/06/26 12:27:07;;;;;;;9.63;7.57;;;32.60;92.60;;;;;;5046610;28;20444;-67
2021/06/26 12:29:34;;;;;;;9.75;7.28;;;32.50;92.10;;;;;;5050932;28;20044;-67
2021/06/26 12:32:04;;;;;;;9.57;6.75;;;31.90;92.50;;;;;;5041655;28;20133;-67
2021/06/26 12:34:31;;;;;;;7.93;6.50;;;31.80;93.70;;;;;;5049556;28;20084;-67